createdAt,value
2023-02-06T00:01:01.331Z,-2.70
2023-02-06T00:03:28.918Z,-2.70
2023-02-06T00:05:57.639Z,-2.70
2023-02-06T00:08:28.053Z,-2.70
2023-02-06T00:10:55.386Z,-2.80
2023-02-06T00:13:22.616Z,-2.80
2023-02-06T00:15:49.659Z,-2.80
2023-02-06T00:18:16.448Z,-2.80
2023-02-06T00:20:43.148Z,-2.80
2023-02-06T00:23:10.123Z,-2.80
2023-02-06T00:25:37.310Z,-2.80
2023-02-06T00:28:04.610Z,-2.90
2023-02-06T00:30:31.629Z,-2.90
2023-02-06T00:32:58.454Z,-2.90
2023-02-06T00:35:25.546Z,-3.00
2023-02-06T00:37:52.421Z,-3.00
2023-02-06T00:40:24.073Z,-3.00
2023-02-06T00:42:50.819Z,-3.10
2023-02-06T00:45:17.713Z,-3.10
2023-02-06T00:47:44.535Z,-3.10
2023-02-06T00:50:11.308Z,-3.20
2023-02-06T00:52:38.193Z,-3.20
2023-02-06T00:55:06.680Z,-3.20
2023-02-06T00:57:33.451Z,-3.20
2023-02-06T01:00:07.554Z,-3.20
2023-02-06T01:02:34.958Z,-3.10
2023-02-06T01:05:02.451Z,-3.10
2023-02-06T01:07:29.426Z,-3.00
2023-02-06T01:09:56.267Z,-2.90
2023-02-06T01:12:25.354Z,-2.70
2023-02-06T01:14:52.198Z,-2.60
2023-02-06T01:17:18.947Z,-2.50
2023-02-06T01:19:46.039Z,-2.30
2023-02-06T01:22:13.072Z,-2.20
2023-02-06T01:24:39.778Z,-2.10
2023-02-06T01:27:06.663Z,-2.00
2023-02-06T01:29:33.496Z,-2.00
2023-02-06T01:32:00.714Z,-1.90
2023-02-06T01:34:27.451Z,-1.90
2023-02-06T01:36:54.413Z,-1.80
2023-02-06T01:39:21.372Z,-1.70
2023-02-06T01:41:48.358Z,-1.70
2023-02-06T01:44:16.714Z,-1.70
2023-02-06T01:46:46.306Z,-1.60
2023-02-06T01:49:37.080Z,-1.50
2023-02-06T01:52:21.658Z,-1.30
2023-02-06T01:55:01.555Z,-1.20
2023-02-06T01:57:29.244Z,-1.10
2023-02-06T02:00:06.231Z,-1.00
2023-02-06T02:02:42.989Z,-1.00
2023-02-06T02:05:11.408Z,-1.00
2023-02-06T02:07:52.872Z,-0.90
2023-02-06T02:10:19.761Z,-0.80
2023-02-06T02:12:46.727Z,-0.80
2023-02-06T02:15:13.577Z,-0.70
2023-02-06T02:17:59.420Z,-0.70
2023-02-06T02:20:32.125Z,-0.70
2023-02-06T02:23:14.242Z,-0.60
2023-02-06T02:25:55.761Z,-0.60
2023-02-06T02:28:50.302Z,-0.60
2023-02-06T02:31:17.177Z,-0.60
2023-02-06T02:34:05.990Z,-0.50
2023-02-06T02:36:39.432Z,-0.50
2023-02-06T02:39:06.210Z,-0.40
2023-02-06T02:41:50.439Z,-0.40
2023-02-06T02:44:34.763Z,-0.40
2023-02-06T02:47:06.460Z,-0.50
2023-02-06T02:49:43.965Z,-0.50
2023-02-06T02:52:12.039Z,-0.60
2023-02-06T02:54:39.094Z,-0.60
2023-02-06T02:57:14.771Z,-0.60
2023-02-06T02:59:45.419Z,-0.60
2023-02-06T03:02:34.996Z,-0.60
2023-02-06T03:05:08.716Z,-0.50
2023-02-06T03:07:51.519Z,-0.50
2023-02-06T03:11:05.662Z,-0.50
2023-02-06T03:13:43.418Z,-0.40
2023-02-06T03:16:31.572Z,-0.40
2023-02-06T03:19:06.081Z,-0.30
2023-02-06T03:21:35.952Z,-0.20
2023-02-06T03:24:08.096Z,-0.20
2023-02-06T03:26:37.192Z,-0.20
2023-02-06T03:29:09.380Z,-0.20
2023-02-06T03:31:41.616Z,-0.20
2023-02-06T03:34:17.236Z,-0.20
2023-02-06T03:36:44.300Z,-0.30
2023-02-06T03:39:11.753Z,-0.40
2023-02-06T03:41:40.202Z,-0.40
2023-02-06T03:44:10.627Z,-0.40
2023-02-06T03:46:39.852Z,-0.40
2023-02-06T03:49:09.532Z,-0.40
2023-02-06T03:51:47.468Z,-0.30
2023-02-06T03:54:18.919Z,-0.30
2023-02-06T03:56:53.270Z,-0.30
2023-02-06T03:59:20.968Z,-0.30
2023-02-06T04:01:52.805Z,-0.20
2023-02-06T04:04:29.186Z,-0.10
2023-02-06T04:06:58.534Z,-0.10
2023-02-06T04:09:28.485Z,0.00
2023-02-06T04:11:55.733Z,0.00
2023-02-06T04:14:22.650Z,0.00
2023-02-06T04:16:49.749Z,0.10
2023-02-06T04:19:16.779Z,0.10
2023-02-06T04:21:44.024Z,0.20
2023-02-06T04:24:10.814Z,0.20
2023-02-06T04:26:37.575Z,0.10
2023-02-06T04:29:04.319Z,0.00
2023-02-06T04:31:37.707Z,-0.10
2023-02-06T04:34:05.305Z,-0.10
2023-02-06T04:36:42.372Z,-0.10
2023-02-06T04:39:09.752Z,-0.10
2023-02-06T04:41:36.998Z,-0.10
2023-02-06T04:44:03.875Z,-0.20
2023-02-06T04:46:30.689Z,-0.30
2023-02-06T04:48:57.463Z,-0.40
2023-02-06T04:51:24.345Z,-0.50
2023-02-06T04:53:51.273Z,-0.40
2023-02-06T04:56:18.145Z,-0.40
2023-02-06T04:58:44.904Z,-0.30
2023-02-06T05:01:11.784Z,-0.20
2023-02-06T05:03:38.588Z,-0.10
2023-02-06T05:06:05.565Z,-0.10
2023-02-06T05:08:32.313Z,0.00
2023-02-06T05:10:59.450Z,0.10
2023-02-06T05:13:26.319Z,0.10
2023-02-06T05:15:53.119Z,0.20
2023-02-06T05:18:20.084Z,0.30
2023-02-06T05:20:46.884Z,0.30
2023-02-06T05:23:17.345Z,0.20
2023-02-06T05:25:44.228Z,0.30
2023-02-06T05:28:11.101Z,0.30
2023-02-06T05:30:38.026Z,0.30
2023-02-06T05:33:04.817Z,0.30
2023-02-06T05:35:31.740Z,0.30
2023-02-06T05:37:58.562Z,0.30
2023-02-06T05:40:25.455Z,0.30
2023-02-06T05:42:52.211Z,0.30
2023-02-06T05:45:19.080Z,0.30
2023-02-06T05:47:45.862Z,0.30
2023-02-06T05:50:12.679Z,0.30
2023-02-06T05:52:39.616Z,0.20
2023-02-06T05:55:07.176Z,0.20
2023-02-06T05:57:34.600Z,0.20
2023-02-06T06:00:02.305Z,0.20
2023-02-06T06:02:38.348Z,0.20
2023-02-06T06:05:13.218Z,0.10
2023-02-06T06:07:40.359Z,0.10
2023-02-06T06:10:07.850Z,0.00
2023-02-06T06:12:34.739Z,-0.10
2023-02-06T06:15:01.623Z,-0.10
2023-02-06T06:17:30.122Z,-0.10
2023-02-06T06:19:59.012Z,-0.10
2023-02-06T06:22:25.850Z,-0.20
2023-02-06T06:24:52.600Z,-0.30
2023-02-06T06:27:19.380Z,-0.30
2023-02-06T06:29:46.102Z,-0.30
2023-02-06T06:32:13.204Z,-0.20
2023-02-06T06:34:39.967Z,-0.20
2023-02-06T06:37:06.728Z,-0.20
2023-02-06T06:39:33.777Z,-0.10
2023-02-06T06:42:00.642Z,0.00
2023-02-06T06:44:27.357Z,0.10
2023-02-06T06:46:54.264Z,0.20
2023-02-06T06:49:21.310Z,0.20
2023-02-06T06:51:48.100Z,0.30
2023-02-06T06:54:15.432Z,0.40
2023-02-06T06:59:23.122Z,0.40
2023-02-06T07:01:52.469Z,0.50
2023-02-06T07:04:21.159Z,0.50
2023-02-06T07:06:48.019Z,0.50
2023-02-06T07:09:15.038Z,0.50
2023-02-06T07:11:42.978Z,0.50
2023-02-06T07:14:09.791Z,0.50
2023-02-06T07:16:37.074Z,0.60
2023-02-06T07:19:04.068Z,0.70
2023-02-06T07:21:30.941Z,0.70
2023-02-06T07:23:57.852Z,0.80
2023-02-06T07:26:24.696Z,0.70
2023-02-06T07:28:52.781Z,0.70
2023-02-06T07:31:19.926Z,0.60
2023-02-06T07:33:46.773Z,0.60
2023-02-06T07:36:15.405Z,0.60
2023-02-06T07:38:42.290Z,0.70
2023-02-06T07:41:09.464Z,0.80
2023-02-06T07:43:38.513Z,0.90
2023-02-06T07:46:05.485Z,1.00
2023-02-06T07:48:32.387Z,1.00
2023-02-06T07:51:05.284Z,1.10
2023-02-06T07:53:32.103Z,1.20
2023-02-06T07:55:58.919Z,1.20
2023-02-06T07:58:25.802Z,1.30
2023-02-06T08:00:54.816Z,1.30
2023-02-06T08:03:21.777Z,1.30
2023-02-06T08:05:48.567Z,1.30
2023-02-06T08:08:15.343Z,1.30
2023-02-06T08:10:43.509Z,1.30
2023-02-06T08:13:10.380Z,1.30
2023-02-06T08:15:37.395Z,1.40
2023-02-06T08:18:04.553Z,1.40
2023-02-06T08:20:31.371Z,1.50
2023-02-06T08:22:58.318Z,1.60
2023-02-06T08:25:25.267Z,1.70
2023-02-06T08:27:54.120Z,1.70
2023-02-06T08:30:21.939Z,1.80
2023-02-06T08:32:49.117Z,1.70
2023-02-06T08:35:15.988Z,1.80
2023-02-06T08:37:42.938Z,1.80
2023-02-06T08:40:12.869Z,1.80
2023-02-06T08:42:39.731Z,1.80
2023-02-06T08:45:07.430Z,1.90
2023-02-06T08:47:34.431Z,1.90
2023-02-06T08:50:03.346Z,1.90
2023-02-06T08:52:30.471Z,2.00
2023-02-06T08:54:57.272Z,2.20
2023-02-06T08:57:23.996Z,2.20
2023-02-06T08:59:50.962Z,2.40
2023-02-06T09:02:17.809Z,2.50
2023-02-06T09:04:44.619Z,2.60
2023-02-06T09:07:11.328Z,2.70
2023-02-06T09:09:38.792Z,2.80
2023-02-06T09:12:06.112Z,2.80
2023-02-06T09:14:32.933Z,2.80
2023-02-06T09:16:59.987Z,2.90
2023-02-06T09:19:26.779Z,3.00
2023-02-06T09:21:54.790Z,3.10
2023-02-06T09:24:21.938Z,3.10
2023-02-06T09:27:03.761Z,3.20
2023-02-06T09:29:31.998Z,3.20
2023-02-06T09:31:59.123Z,3.20
2023-02-06T09:34:27.009Z,3.40
2023-02-06T09:36:55.106Z,3.60
2023-02-06T09:39:22.377Z,3.70
2023-02-06T09:41:51.090Z,3.80
2023-02-06T09:44:35.432Z,3.90
2023-02-06T09:47:24.302Z,3.80
2023-02-06T09:50:17.093Z,3.80
2023-02-06T09:53:13.107Z,3.80
2023-02-06T09:55:55.488Z,3.90
2023-02-06T09:58:47.158Z,4.00
2023-02-06T10:01:37.456Z,4.20
2023-02-06T10:04:27.045Z,4.30
2023-02-06T10:07:03.048Z,4.40
2023-02-06T10:09:44.403Z,4.50
2023-02-06T10:12:27.196Z,4.60
2023-02-06T10:14:59.194Z,4.70
2023-02-06T10:17:41.823Z,4.70
2023-02-06T10:20:30.074Z,4.80
2023-02-06T10:23:09.926Z,4.90
2023-02-06T10:25:51.603Z,4.90
2023-02-06T10:28:29.784Z,4.90
2023-02-06T10:31:26.022Z,4.90
2023-02-06T10:34:24.930Z,4.90
2023-02-06T10:37:00.407Z,4.80
2023-02-06T10:39:45.801Z,4.90
2023-02-06T10:42:19.066Z,5.00
2023-02-06T10:45:19.739Z,5.10
2023-02-06T10:47:55.142Z,5.10
2023-02-06T10:51:09.839Z,5.10
2023-02-06T10:53:49.743Z,5.10
2023-02-06T10:56:22.440Z,5.20
2023-02-06T10:59:01.046Z,5.30
2023-02-06T11:01:32.373Z,5.30
2023-02-06T11:04:24.072Z,5.30
2023-02-06T11:06:57.817Z,5.40
2023-02-06T11:09:24.660Z,5.40
2023-02-06T11:11:56.241Z,5.40
2023-02-06T11:14:30.401Z,5.60
2023-02-06T11:16:59.944Z,5.70
2023-02-06T11:19:41.544Z,5.60
2023-02-06T11:22:12.684Z,5.60
2023-02-06T11:24:57.868Z,5.60
2023-02-06T11:27:25.427Z,5.60
2023-02-06T11:29:52.426Z,5.50
2023-02-06T11:33:02.538Z,5.30
2023-02-06T11:35:31.884Z,5.20
2023-02-06T11:38:15.598Z,5.20
2023-02-06T11:40:43.270Z,5.20
2023-02-06T11:43:18.764Z,5.20
2023-02-06T11:45:47.565Z,5.30
2023-02-06T11:48:33.300Z,5.30
2023-02-06T11:51:00.166Z,5.40
2023-02-06T11:53:27.020Z,5.30
2023-02-06T11:56:14.613Z,5.30
2023-02-06T11:58:44.937Z,5.30
2023-02-06T12:01:22.130Z,5.30
2023-02-06T12:03:58.818Z,5.30
2023-02-06T12:06:33.011Z,5.30
2023-02-06T12:09:02.055Z,5.30
2023-02-06T12:11:36.814Z,5.30
2023-02-06T12:14:09.943Z,5.20
2023-02-06T12:16:40.586Z,5.30
2023-02-06T12:19:22.977Z,5.30
2023-02-06T12:22:22.536Z,5.40
2023-02-06T12:24:52.147Z,5.40
2023-02-06T12:27:25.927Z,5.40
2023-02-06T12:29:57.204Z,5.40
2023-02-06T12:32:36.661Z,5.40
2023-02-06T12:35:18.466Z,5.40
2023-02-06T12:37:53.886Z,5.50
2023-02-06T12:40:54.641Z,5.60
2023-02-06T12:43:21.555Z,5.60
2023-02-06T12:46:04.469Z,5.60
2023-02-06T12:48:46.343Z,5.60
2023-02-06T12:51:16.699Z,5.60
2023-02-06T12:53:59.311Z,5.50
2023-02-06T12:56:33.618Z,5.50
2023-02-06T12:59:09.525Z,5.50
2023-02-06T13:01:44.079Z,5.50
2023-02-06T13:04:21.128Z,5.40
2023-02-06T13:07:11.868Z,5.30
2023-02-06T13:09:52.446Z,5.20
2023-02-06T13:12:26.428Z,5.10
2023-02-06T13:14:58.865Z,5.00
2023-02-06T13:17:32.120Z,4.80
2023-02-06T13:20:04.778Z,4.70
2023-02-06T13:22:36.078Z,4.50
2023-02-06T13:25:43.026Z,4.30
2023-02-06T13:28:22.153Z,4.10
2023-02-06T13:30:58.953Z,3.90
2023-02-06T13:33:37.862Z,3.80
2023-02-06T13:36:09.726Z,3.70
2023-02-06T13:38:38.635Z,3.70
2023-02-06T13:41:14.611Z,3.70
2023-02-06T13:43:48.231Z,3.70
2023-02-06T13:46:19.766Z,3.60
2023-02-06T13:49:05.433Z,3.60
2023-02-06T13:51:58.416Z,3.70
2023-02-06T13:54:44.518Z,3.70
2023-02-06T13:57:20.284Z,3.70
2023-02-06T13:59:58.824Z,3.80
2023-02-06T14:02:39.719Z,3.70
2023-02-06T14:05:11.201Z,3.80
2023-02-06T14:08:01.401Z,3.90
2023-02-06T14:10:47.010Z,3.90
2023-02-06T14:13:40.852Z,3.70
2023-02-06T14:16:28.764Z,3.60
2023-02-06T14:19:11.842Z,3.50
2023-02-06T14:21:56.800Z,3.50
2023-02-06T14:24:53.678Z,3.40
2023-02-06T14:27:48.293Z,3.40
2023-02-06T14:30:37.541Z,3.30
2023-02-06T14:33:26.983Z,3.30
2023-02-06T14:36:25.899Z,3.20
2023-02-06T14:39:10.333Z,3.10
2023-02-06T14:41:39.525Z,3.00
2023-02-06T14:44:20.318Z,3.00
2023-02-06T14:46:47.584Z,3.00
2023-02-06T14:49:18.882Z,3.00
2023-02-06T14:51:50.287Z,3.00
2023-02-06T14:54:36.557Z,3.10
2023-02-06T14:57:06.696Z,3.10
2023-02-06T14:59:33.611Z,3.10
2023-02-06T15:02:13.608Z,3.20
2023-02-06T15:04:48.762Z,3.30
2023-02-06T15:07:25.332Z,3.30
2023-02-06T15:10:02.298Z,3.40
2023-02-06T15:12:30.153Z,3.50
2023-02-06T15:15:19.651Z,3.40
2023-02-06T15:18:17.770Z,3.40
2023-02-06T15:20:46.605Z,3.40
2023-02-06T15:23:23.966Z,3.40
2023-02-06T15:26:21.612Z,3.40
2023-02-06T15:28:48.674Z,3.40
2023-02-06T15:31:20.125Z,3.30
2023-02-06T15:33:56.654Z,3.30
2023-02-06T15:36:31.128Z,3.20
2023-02-06T15:39:00.109Z,3.10
2023-02-06T15:41:28.665Z,3.10
2023-02-06T15:44:19.145Z,3.10
2023-02-06T15:46:49.177Z,3.10
2023-02-06T15:49:19.192Z,3.10
2023-02-06T15:51:54.965Z,3.10
2023-02-06T15:54:25.982Z,3.10
2023-02-06T15:57:19.255Z,3.10
2023-02-06T15:59:46.644Z,3.00
2023-02-06T16:02:32.742Z,3.10
2023-02-06T16:05:00.821Z,3.00
2023-02-06T16:07:31.956Z,3.00
2023-02-06T16:10:08.655Z,2.90
2023-02-06T16:12:38.657Z,2.90
2023-02-06T16:15:24.170Z,2.80
2023-02-06T16:17:50.988Z,2.70
2023-02-06T16:20:32.138Z,2.60
2023-02-06T16:23:19.850Z,2.50
2023-02-06T16:26:01.848Z,2.40
2023-02-06T16:28:29.046Z,2.40
2023-02-06T16:31:02.319Z,2.40
2023-02-06T16:33:31.976Z,2.30
2023-02-06T16:35:58.893Z,2.30
2023-02-06T16:38:25.691Z,2.40
2023-02-06T16:40:52.925Z,2.40
2023-02-06T16:43:20.125Z,2.40
2023-02-06T16:45:49.099Z,2.40
2023-02-06T16:48:17.583Z,2.40
2023-02-06T16:50:45.991Z,2.40
2023-02-06T16:53:25.196Z,2.40
2023-02-06T16:55:52.284Z,2.30
2023-02-06T16:58:22.022Z,2.30
2023-02-06T17:00:49.553Z,2.30
2023-02-06T17:03:17.864Z,2.30
2023-02-06T17:05:46.521Z,2.30
2023-02-06T17:08:22.440Z,2.40
2023-02-06T17:10:49.388Z,2.40
2023-02-06T17:13:18.870Z,2.40
2023-02-06T17:15:52.253Z,2.40
2023-02-06T17:18:21.431Z,2.50
2023-02-06T17:20:51.710Z,2.50
2023-02-06T17:23:19.439Z,2.50
2023-02-06T17:25:46.440Z,2.50
2023-02-06T17:28:16.439Z,2.50
2023-02-06T17:30:43.834Z,2.50
2023-02-06T17:33:10.768Z,2.50
2023-02-06T17:35:38.083Z,2.50
2023-02-06T17:38:07.094Z,2.50
2023-02-06T17:40:36.201Z,2.50
2023-02-06T17:43:04.596Z,2.50
2023-02-06T17:45:32.014Z,2.50
2023-02-06T17:47:59.217Z,2.50
2023-02-06T17:50:27.874Z,2.50
2023-02-06T17:52:56.055Z,2.50
2023-02-06T17:55:24.015Z,2.50
2023-02-06T17:57:51.086Z,2.50
2023-02-06T18:00:22.098Z,2.40
2023-02-06T18:02:50.354Z,2.40
2023-02-06T18:05:17.838Z,2.40
2023-02-06T18:07:45.556Z,2.40
2023-02-06T18:10:12.670Z,2.50
2023-02-06T18:12:39.529Z,2.50
2023-02-06T18:15:06.928Z,2.50
2023-02-06T18:17:33.805Z,2.50
2023-02-06T18:20:00.921Z,2.50
2023-02-06T18:22:27.933Z,2.50
2023-02-06T18:24:54.771Z,2.40
2023-02-06T18:27:23.036Z,2.40
2023-02-06T18:29:52.640Z,2.40
2023-02-06T18:32:19.569Z,2.40
2023-02-06T18:34:46.928Z,2.40
2023-02-06T18:37:14.030Z,2.40
2023-02-06T18:39:40.856Z,2.40
2023-02-06T18:42:26.175Z,2.30
2023-02-06T18:44:52.993Z,2.20
2023-02-06T18:47:19.846Z,2.20
2023-02-06T18:49:46.873Z,2.10
2023-02-06T18:52:14.251Z,2.00
2023-02-06T18:54:41.136Z,2.00
2023-02-06T18:57:08.095Z,1.90
2023-02-06T18:59:35.107Z,1.90
2023-02-06T19:02:02.446Z,1.90
2023-02-06T19:04:29.866Z,1.90
2023-02-06T19:06:56.816Z,1.90
2023-02-06T19:09:23.671Z,1.90
2023-02-06T19:11:50.717Z,1.80
2023-02-06T19:14:22.421Z,1.80
2023-02-06T19:16:51.590Z,1.70
2023-02-06T19:19:19.245Z,1.70
2023-02-06T19:21:46.080Z,1.70
2023-02-06T19:24:15.308Z,1.70
2023-02-06T19:26:42.349Z,1.70
2023-02-06T19:29:09.951Z,1.80
2023-02-06T19:31:39.387Z,1.90
2023-02-06T19:34:08.008Z,2.00
2023-02-06T19:36:35.437Z,2.00
2023-02-06T19:39:06.092Z,2.10
2023-02-06T19:41:34.180Z,2.20
2023-02-06T19:44:06.505Z,2.20
2023-02-06T19:46:34.551Z,2.20
2023-02-06T19:49:01.306Z,2.30
2023-02-06T19:51:31.461Z,2.20
2023-02-06T19:53:59.955Z,2.30
2023-02-06T19:56:34.588Z,2.30
2023-02-06T19:59:02.560Z,2.30
2023-02-06T20:01:30.552Z,2.20
2023-02-06T20:03:59.142Z,2.20
2023-02-06T20:06:27.532Z,2.20
2023-02-06T20:08:56.092Z,2.20
2023-02-06T20:11:23.291Z,2.10
2023-02-06T20:13:55.575Z,2.10
2023-02-06T20:16:31.582Z,2.10
2023-02-06T20:18:59.153Z,2.00
2023-02-06T20:21:37.396Z,2.00
2023-02-06T20:24:10.474Z,2.00
2023-02-06T20:26:39.328Z,2.00
2023-02-06T20:29:07.489Z,2.00
2023-02-06T20:31:35.182Z,2.00
2023-02-06T20:34:02.878Z,2.00
2023-02-06T20:36:30.123Z,2.00
2023-02-06T20:38:59.462Z,2.00
2023-02-06T20:41:29.723Z,2.00
2023-02-06T20:44:01.157Z,2.00
2023-02-06T20:46:29.712Z,2.00
2023-02-06T20:49:03.301Z,1.90
2023-02-06T20:51:31.220Z,2.00
2023-02-06T20:53:58.692Z,1.90
2023-02-06T20:56:26.014Z,1.90
2023-02-06T20:58:53.318Z,1.90
2023-02-06T21:01:28.685Z,1.80
2023-02-06T21:03:59.286Z,1.80
2023-02-06T21:06:26.831Z,1.70
2023-02-06T21:08:58.228Z,1.70
2023-02-06T21:11:29.396Z,1.60
2023-02-06T21:13:58.648Z,1.50
2023-02-06T21:16:26.942Z,1.40
2023-02-06T21:18:55.303Z,1.30
2023-02-06T21:21:22.471Z,1.20
2023-02-06T21:23:49.589Z,1.20
2023-02-06T21:26:19.863Z,1.10
2023-02-06T21:28:47.043Z,1.10
2023-02-06T21:31:17.033Z,1.00
2023-02-06T21:33:46.965Z,1.00
2023-02-06T21:36:14.113Z,0.90
2023-02-06T21:38:41.927Z,0.90
2023-02-06T21:41:12.392Z,0.80
2023-02-06T21:43:48.112Z,0.80
2023-02-06T21:46:15.447Z,0.70
2023-02-06T21:48:42.452Z,0.70
2023-02-06T21:51:14.964Z,0.70
2023-02-06T21:53:45.008Z,0.60
2023-02-06T21:56:17.832Z,0.60
2023-02-06T21:58:52.172Z,0.50
2023-02-06T22:01:22.086Z,0.50
2023-02-06T22:03:49.241Z,0.60
2023-02-06T22:06:19.649Z,0.50
2023-02-06T22:08:52.429Z,0.50
2023-02-06T22:11:25.793Z,0.50
2023-02-06T22:13:57.273Z,0.40
2023-02-06T22:16:24.648Z,0.40
2023-02-06T22:18:51.655Z,0.30
2023-02-06T22:21:21.104Z,0.30
2023-02-06T22:23:52.419Z,0.30
2023-02-06T22:26:21.121Z,0.20
2023-02-06T22:28:48.022Z,0.20
2023-02-06T22:31:23.652Z,0.20
2023-02-06T22:33:51.546Z,0.10
2023-02-06T22:36:21.130Z,0.10
2023-02-06T22:38:52.334Z,0.10
2023-02-06T22:41:19.246Z,0.10
2023-02-06T22:43:48.117Z,0.00
2023-02-06T22:46:26.904Z,0.00
2023-02-06T22:48:54.424Z,0.00
2023-02-06T22:51:21.865Z,-0.10
2023-02-06T22:53:48.677Z,-0.10
2023-02-06T22:56:31.615Z,-0.10
2023-02-06T22:59:29.633Z,-0.20
2023-02-06T23:01:58.360Z,-0.20
2023-02-06T23:04:30.341Z,-0.20
2023-02-06T23:06:58.592Z,-0.30
2023-02-06T23:09:28.102Z,-0.30
2023-02-06T23:11:55.790Z,-0.40
2023-02-06T23:14:22.579Z,-0.40
2023-02-06T23:16:49.476Z,-0.40
2023-02-06T23:19:25.273Z,-0.50
2023-02-06T23:21:52.086Z,-0.60
2023-02-06T23:24:25.368Z,-0.60
2023-02-06T23:26:54.266Z,-0.60
2023-02-06T23:29:22.645Z,-0.60
2023-02-06T23:31:50.546Z,-0.70
2023-02-06T23:34:18.313Z,-0.70
2023-02-06T23:36:46.102Z,-0.70
2023-02-06T23:39:19.259Z,-0.80
2023-02-06T23:41:46.342Z,-0.80
2023-02-06T23:44:13.736Z,-0.90
2023-02-06T23:46:41.203Z,-0.90
2023-02-06T23:49:08.424Z,-0.90
2023-02-06T23:51:36.677Z,-1.00
2023-02-06T23:54:04.414Z,-1.00
2023-02-06T23:56:33.560Z,-1.00
2023-02-06T23:59:02.223Z,-1.10
